Time;durP1;ratioP1;P1;durP2;ratioP2;P2;SDS_P1;SDS_P2;PMS_P1;PMS_P2;Temp;Humidity;BMP_temperature;BMP_pressure;BME280_temperature;BME280_humidity;BME280_pressure;Samples;Min_cycle;Max_cycle;Signal;HPM_P1;HPM_P2
2023/09/13 00:01:08;;;;;;;5.27;4.77;;;17.90;99.90;;;;;;5022945;28;20483;-51
2023/09/13 00:03:35;;;;;;;6.10;4.63;;;17.90;99.90;;;;;;5012363;28;20484;-52
2023/09/13 00:06:01;;;;;;;5.20;4.80;;;17.90;99.90;;;;;;5011940;28;20515;-51
2023/09/13 00:08:28;;;;;;;5.43;4.33;;;17.90;99.90;;;;;;5012763;28;20793;-51
2023/09/13 00:11:02;;;;;;;10.67;4.77;;;17.90;99.90;;;;;;5009907;28;20499;-50
2023/09/13 00:13:28;;;;;;;5.70;4.63;;;17.90;99.90;;;;;;5005443;28;20516;-52
2023/09/13 00:15:56;;;;;;;5.07;4.37;;;17.90;99.90;;;;;;5012927;28;20512;-50
2023/09/13 00:18:23;;;;;;;6.07;4.63;;;18.00;99.90;;;;;;5021606;28;20487;-51
2023/09/13 00:20:52;;;;;;;4.37;4.07;;;18.00;99.90;;;;;;5014209;28;20487;-51
2023/09/13 00:23:18;;;;;;;5.90;4.70;;;18.00;99.90;;;;;;5020962;28;20542;-51
2023/09/13 00:25:45;;;;;;;5.37;4.80;;;18.00;99.90;;;;;;5024238;28;20522;-50
2023/09/13 00:28:11;;;;;;;5.33;4.80;;;18.00;99.90;;;;;;5020364;28;20549;-51
2023/09/13 00:30:38;;;;;;;5.53;4.90;;;18.10;99.90;;;;;;5017604;28;21010;-51
2023/09/13 00:33:06;;;;;;;5.70;5.20;;;18.00;99.90;;;;;;5012064;28;20494;-50
2023/09/13 00:35:33;;;;;;;5.50;5.00;;;18.00;99.90;;;;;;5015122;28;20476;-51
2023/09/13 00:37:59;;;;;;;4.67;4.37;;;18.00;99.90;;;;;;5011392;28;20912;-51
2023/09/13 00:40:26;;;;;;;5.17;4.10;;;18.10;99.90;;;;;;5018982;28;20989;-50
2023/09/13 00:42:53;;;;;;;4.73;4.33;;;18.10;99.90;;;;;;5019843;28;20487;-51
2023/09/13 00:45:20;;;;;;;5.20;4.70;;;18.10;99.90;;;;;;5024948;28;20547;-50
2023/09/13 00:47:48;;;;;;;5.80;5.30;;;18.10;99.90;;;;;;5005896;28;20472;-50
2023/09/13 00:50:17;;;;;;;5.63;4.97;;;18.00;99.90;;;;;;5011731;28;20875;-50
2023/09/13 00:52:44;;;;;;;8.67;5.40;;;18.00;99.90;;;;;;5019293;28;20486;-51
2023/09/13 00:55:13;;;;;;;5.30;4.90;;;18.00;99.90;;;;;;5023147;28;20914;-51
2023/09/13 00:57:39;;;;;;;5.67;4.90;;;18.00;99.90;;;;;;5013311;28;20452;-50
2023/09/13 01:00:10;;;;;;;6.03;4.80;;;18.00;99.90;;;;;;5019875;28;20491;-51
2023/09/13 01:02:38;;;;;;;5.67;4.90;;;18.00;99.90;;;;;;5019794;28;20513;-51
2023/09/13 01:05:06;;;;;;;5.57;5.07;;;18.00;99.90;;;;;;5011219;28;20487;-51
2023/09/13 01:07:34;;;;;;;5.40;5.00;;;18.00;99.90;;;;;;5025160;28;20486;-51
2023/09/13 01:10:00;;;;;;;5.77;4.50;;;18.00;99.90;;;;;;5024397;28;20843;-50
2023/09/13 01:12:27;;;;;;;8.90;4.80;;;18.00;99.90;;;;;;5021813;28;20887;-51
2023/09/13 01:14:53;;;;;;;6.07;5.20;;;18.00;99.90;;;;;;5018498;28;20518;-51
2023/09/13 01:17:24;;;;;;;9.27;5.00;;;18.00;99.90;;;;;;5028762;28;20507;-51
2023/09/13 01:20:03;;;;;;;8.70;6.17;;;18.00;99.90;;;;;;5014395;28;20970;-51
2023/09/13 01:23:06;;;;;;;5.90;5.40;;;18.00;99.90;;;;;;5015245;28;20462;-51
2023/09/13 01:25:59;;;;;;;6.30;5.80;;;18.00;99.90;;;;;;5014950;28;20498;-51
2023/09/13 01:28:34;;;;;;;6.43;5.83;;;18.00;99.90;;;;;;5005577;28;20487;-51
2023/09/13 01:31:02;;;;;;;8.00;5.90;;;18.00;99.90;;;;;;5011825;28;20498;-51
2023/09/13 01:33:29;;;;;;;8.60;5.30;;;18.00;99.90;;;;;;5013662;28;20514;-51
2023/09/13 01:35:55;;;;;;;6.30;5.27;;;18.00;99.90;;;;;;5011741;28;20513;-51
2023/09/13 01:38:22;;;;;;;7.80;5.97;;;18.10;99.90;;;;;;5006976;28;20996;-51
2023/09/13 01:40:51;;;;;;;7.63;5.90;;;18.10;99.90;;;;;;5010658;28;20466;-50
2023/09/13 01:43:20;;;;;;;7.73;6.17;;;18.10;99.90;;;;;;5007267;28;20896;-50
2023/09/13 01:45:48;;;;;;;6.50;5.40;;;18.10;99.90;;;;;;5008808;28;20515;-51
2023/09/13 01:48:17;;;;;;;6.10;5.50;;;18.00;99.90;;;;;;5007850;28;20533;-51
2023/09/13 01:50:44;;;;;;;7.40;6.33;;;18.10;99.90;;;;;;5012071;28;20543;-50
2023/09/13 01:53:10;;;;;;;6.70;5.90;;;18.10;99.90;;;;;;5011984;28;20553;-51
2023/09/13 01:55:37;;;;;;;8.47;5.87;;;18.10;99.90;;;;;;5007722;28;21055;-50
2023/09/13 01:58:04;;;;;;;8.10;6.10;;;18.00;99.90;;;;;;5007780;28;20555;-50
2023/09/13 02:00:30;;;;;;;12.90;5.57;;;18.00;99.90;;;;;;4998886;28;20491;-49
2023/09/13 02:02:58;;;;;;;6.20;5.70;;;18.00;99.90;;;;;;5011788;28;21012;-49
2023/09/13 02:05:25;;;;;;;6.27;5.70;;;18.10;99.90;;;;;;5015286;28;20541;-50
2023/09/13 02:07:51;;;;;;;5.93;5.33;;;18.10;99.90;;;;;;5024949;28;20528;-50
2023/09/13 02:10:18;;;;;;;7.03;5.00;;;18.10;99.90;;;;;;5015328;28;20497;-50
2023/09/13 02:12:44;;;;;;;6.47;4.00;;;18.10;99.90;;;;;;5009186;28;20575;-49
2023/09/13 02:15:12;;;;;;;20.83;6.00;;;18.10;99.90;;;;;;5014896;28;20582;-49
2023/09/13 02:17:39;;;;;;;39.93;5.07;;;18.10;99.90;;;;;;5019280;28;20462;-49
2023/09/13 02:20:08;;;;;;;6.50;3.53;;;17.90;99.90;;;;;;5009540;28;20487;-49
2023/09/13 02:22:35;;;;;;;9.10;3.10;;;17.70;99.90;;;;;;5012330;28;20506;-49
2023/09/13 02:25:03;;;;;;;12.47;3.53;;;17.60;1.40;;;;;;5022046;28;20511;-50
2023/09/13 02:27:32;;;;;;;10.00;3.47;;;17.50;99.90;;;;;;5008040;28;20482;-49
2023/09/13 02:29:58;;;;;;;8.53;3.70;;;17.50;99.90;;;;;;5011838;28;20467;-49
2023/09/13 02:32:25;;;;;;;9.90;4.60;;;17.50;99.90;;;;;;5020512;28;20501;-50
2023/09/13 02:34:51;;;;;;;5.27;3.30;;;17.50;99.90;;;;;;5012138;28;20534;-50
2023/09/13 02:37:19;;;;;;;15.47;4.10;;;17.50;99.90;;;;;;5008096;28;20506;-51
2023/09/13 02:39:46;;;;;;;15.23;3.93;;;17.50;99.90;;;;;;5020196;28;20866;-50
2023/09/13 02:42:12;;;;;;;4.47;3.33;;;17.50;99.90;;;;;;5017739;28;20495;-50
2023/09/13 02:44:39;;;;;;;6.87;3.83;;;17.50;99.90;;;;;;5014179;28;20503;-59
2023/09/13 02:47:06;;;;;;;10.70;3.47;;;17.40;99.90;;;;;;5011717;28;20487;-50
2023/09/13 02:49:33;;;;;;;12.63;4.30;;;17.50;99.90;;;;;;5019328;28;20631;-50
2023/09/13 02:52:00;;;;;;;12.00;4.13;;;17.50;99.90;;;;;;5014086;28;20471;-50
2023/09/13 02:54:28;;;;;;;7.57;3.97;;;17.50;99.90;;;;;;5012543;28;20526;-50
2023/09/13 02:56:54;;;;;;;7.63;4.20;;;17.50;99.90;;;;;;5018709;28;21136;-50
2023/09/13 02:59:21;;;;;;;11.30;3.80;;;17.50;99.90;;;;;;5019224;28;20495;-50
2023/09/13 03:01:48;;;;;;;10.30;4.20;;;17.40;99.90;;;;;;5015371;28;20512;-49
2023/09/13 03:04:15;;;;;;;8.27;3.60;;;17.40;99.90;;;;;;5010248;28;20596;-49
2023/09/13 03:06:41;;;;;;;7.33;3.20;;;17.40;99.90;;;;;;5006817;28;20550;-50
2023/09/13 03:09:08;;;;;;;4.20;3.30;;;17.40;99.90;;;;;;5008830;28;20494;-50
2023/09/13 03:11:37;;;;;;;7.13;4.10;;;17.40;99.90;;;;;;5011676;28;20494;-49
2023/09/13 03:14:03;;;;;;;8.97;3.73;;;17.30;99.90;;;;;;5010038;28;20880;-53
2023/09/13 03:16:30;;;;;;;3.50;3.20;;;17.30;99.90;;;;;;4999837;28;20575;-52
2023/09/13 03:18:57;;;;;;;5.60;3.50;;;17.20;99.90;;;;;;5008623;28;20471;-54
2023/09/13 03:21:24;;;;;;;7.23;3.63;;;17.20;99.90;;;;;;5010640;28;20559;-53
2023/09/13 03:23:51;;;;;;;15.83;4.77;;;17.20;99.90;;;;;;5009598;28;20469;-53
2023/09/13 03:26:19;;;;;;;8.47;4.27;;;17.20;99.90;;;;;;5012632;28;20478;-53
2023/09/13 03:28:50;;;;;;;5.73;3.10;;;17.20;99.90;;;;;;5016409;28;20831;-54
2023/09/13 03:31:18;;;;;;;14.00;3.47;;;17.20;99.90;;;;;;5012747;28;20550;-53
2023/09/13 03:33:45;;;;;;;8.50;3.73;;;17.20;99.90;;;;;;5016561;28;20825;-53
2023/09/13 03:36:14;;;;;;;4.67;3.63;;;17.30;99.90;;;;;;5019965;28;21035;-55
2023/09/13 03:38:41;;;;;;;3.73;3.00;;;17.20;99.90;;;;;;5012990;28;20518;-54
2023/09/13 03:41:09;;;;;;;11.00;4.30;;;17.20;99.90;;;;;;5018453;28;20471;-53
2023/09/13 03:43:36;;;;;;;4.63;3.23;;;17.10;99.90;;;;;;5025039;28;21044;-53
2023/09/13 03:46:05;;;;;;;4.77;3.77;;;17.20;99.90;;;;;;5017231;28;20982;-54
2023/09/13 03:48:31;;;;;;;3.70;3.10;;;17.20;99.90;;;;;;5008943;28;20526;-54
2023/09/13 03:50:58;;;;;;;5.67;3.40;;;17.20;99.90;;;;;;5019224;28;20501;-53
2023/09/13 03:53:25;;;;;;;5.77;3.87;;;17.20;99.90;;;;;;5015086;28;20503;-53
2023/09/13 03:55:51;;;;;;;5.80;4.13;;;17.20;99.90;;;;;;5021897;28;20503;-53
2023/09/13 03:58:18;;;;;;;7.50;3.90;;;17.20;99.90;;;;;;5012059;28;20590;-54
2023/09/13 04:00:44;;;;;;;7.60;3.67;;;17.20;99.90;;;;;;5018325;28;20922;-50
2023/09/13 04:03:13;;;;;;;4.10;3.17;;;17.20;99.90;;;;;;5012526;28;20548;-51
2023/09/13 04:05:39;;;;;;;5.23;3.80;;;17.20;99.90;;;;;;5019368;28;20571;-50
2023/09/13 04:08:06;;;;;;;3.80;3.40;;;17.20;99.90;;;;;;5013178;28;20532;-49
2023/09/13 04:10:33;;;;;;;8.17;3.93;;;17.10;99.90;;;;;;5025501;28;21003;-50
2023/09/13 04:12:59;;;;;;;11.47;4.00;;;17.10;99.90;;;;;;5022644;28;20913;-50
2023/09/13 04:15:26;;;;;;;3.83;3.23;;;17.10;99.90;;;;;;5014778;28;20538;-50
2023/09/13 04:17:52;;;;;;;9.10;3.30;;;17.00;99.90;;;;;;5014784;28;20491;-50
2023/09/13 04:20:20;;;;;;;7.23;3.07;;;17.10;99.90;;;;;;5014326;28;20463;-50
2023/09/13 04:22:47;;;;;;;5.40;3.90;;;17.10;99.90;;;;;;5017039;28;20580;-50
2023/09/13 04:25:13;;;;;;;5.50;4.20;;;17.00;99.90;;;;;;5021467;28;20511;-50
2023/09/13 04:27:43;;;;;;;6.00;3.80;;;17.00;99.90;;;;;;5021766;28;20905;-49
2023/09/13 04:30:11;;;;;;;4.23;3.50;;;17.10;99.90;;;;;;5020299;28;20475;-50
2023/09/13 04:32:38;;;;;;;5.27;3.43;;;17.10;99.90;;;;;;5015279;28;20549;-49
2023/09/13 04:35:05;;;;;;;3.60;2.50;;;17.10;99.90;;;;;;5016941;28;20487;-50
2023/09/13 04:37:33;;;;;;;4.47;3.43;;;17.10;99.90;;;;;;5013017;28;20451;-50
2023/09/13 04:40:02;;;;;;;5.17;3.97;;;17.00;99.90;;;;;;5010569;28;20495;-58
2023/09/13 04:42:30;;;;;;;4.50;3.17;;;17.00;99.90;;;;;;5016836;28;20460;-56
2023/09/13 04:44:57;;;;;;;6.73;3.50;;;17.00;99.90;;;;;;5015036;28;20876;-56
2023/09/13 04:47:23;;;;;;;6.50;3.50;;;17.00;99.90;;;;;;5017353;28;20565;-55
2023/09/13 04:49:50;;;;;;;6.30;3.70;;;17.00;99.90;;;;;;5011470;28;20467;-53
2023/09/13 04:52:16;;;;;;;6.63;4.63;;;17.00;99.90;;;;;;5019160;28;20506;-56
2023/09/13 04:54:44;;;;;;;5.20;4.20;;;17.00;99.90;;;;;;5017565;28;20491;-56
2023/09/13 04:57:12;;;;;;;6.20;4.60;;;17.00;99.90;;;;;;5009540;28;20525;-57
2023/09/13 04:59:43;;;;;;;7.83;4.97;;;17.00;99.90;;;;;;5018251;28;20459;-57
2023/09/13 05:02:11;;;;;;;10.90;5.53;;;17.00;99.90;;;;;;5014112;28;20478;-56
2023/09/13 05:04:37;;;;;;;9.90;4.80;;;17.00;99.90;;;;;;5009019;28;20470;-56
2023/09/13 05:07:04;;;;;;;10.07;5.93;;;17.10;99.90;;;;;;5007522;28;20569;-57
2023/09/13 05:09:31;;;;;;;5.57;5.10;;;17.10;99.90;;;;;;5008576;28;21029;-56
2023/09/13 05:11:59;;;;;;;6.37;5.20;;;17.10;99.90;;;;;;5007485;28;20893;-56
2023/09/13 05:14:26;;;;;;;11.27;5.57;;;17.10;99.90;;;;;;5008550;28;20983;-57
2023/09/13 05:16:53;;;;;;;13.23;5.70;;;17.10;99.90;;;;;;5008507;28;21052;-56
2023/09/13 05:19:19;;;;;;;6.57;5.57;;;17.10;99.90;;;;;;5003786;28;20562;-56
2023/09/13 05:21:46;;;;;;;5.03;4.53;;;17.10;99.90;;;;;;5004765;28;20460;-57
2023/09/13 05:24:12;;;;;;;5.90;4.63;;;17.10;99.90;;;;;;5008209;28;20571;-58
2023/09/13 05:26:39;;;;;;;6.53;5.50;;;17.20;99.90;;;;;;5006126;28;20570;-57
2023/09/13 05:29:07;;;;;;;11.30;5.40;;;17.30;99.90;;;;;;5008594;28;20529;-58
2023/09/13 05:31:33;;;;;;;8.37;6.30;;;17.30;99.90;;;;;;5008122;28;21086;-57
2023/09/13 05:34:00;;;;;;;5.73;5.10;;;17.20;99.90;;;;;;5008289;28;20487;-58
2023/09/13 05:36:26;;;;;;;7.30;6.10;;;17.30;99.90;;;;;;5007799;28;20475;-58
2023/09/13 05:38:53;;;;;;;6.30;5.70;;;17.20;99.90;;;;;;5009242;28;20499;-57
2023/09/13 05:41:19;;;;;;;7.63;6.37;;;17.30;99.90;;;;;;5009027;28;20554;-58
2023/09/13 05:43:46;;;;;;;8.93;6.20;;;17.30;99.90;;;;;;5013315;28;20554;-57
2023/09/13 05:46:16;;;;;;;14.00;5.80;;;17.30;99.90;;;;;;5012228;28;20476;-58
2023/09/13 05:48:42;;;;;;;13.00;5.97;;;17.30;99.90;;;;;;5015944;28;20514;-58
2023/09/13 05:51:09;;;;;;;7.10;6.40;;;17.40;99.90;;;;;;5004847;28;20555;-57
2023/09/13 05:53:35;;;;;;;7.80;6.37;;;17.40;99.90;;;;;;5014284;28;20559;-58
2023/09/13 05:56:03;;;;;;;10.40;7.00;;;17.40;99.90;;;;;;5005277;28;20511;-58
2023/09/13 05:58:29;;;;;;;14.63;7.27;;;17.40;99.90;;;;;;5012517;28;20816;-58
2023/09/13 06:00:57;;;;;;;9.33;7.80;;;17.40;99.90;;;;;;5009516;28;20598;-58
2023/09/13 06:03:25;;;;;;;14.10;7.00;;;17.40;99.90;;;;;;5014582;28;20463;-57
2023/09/13 06:05:51;;;;;;;9.50;7.20;;;17.40;99.90;;;;;;5007117;28;20535;-58
2023/09/13 06:08:18;;;;;;;11.00;7.67;;;17.50;99.90;;;;;;5007238;28;20570;-57
2023/09/13 06:10:45;;;;;;;11.37;8.17;;;17.50;99.90;;;;;;5003729;28;20471;-57
2023/09/13 06:13:12;;;;;;;9.30;6.90;;;17.60;99.90;;;;;;5012951;28;20558;-57
2023/09/13 06:15:38;;;;;;;17.30;8.67;;;17.60;99.90;;;;;;5008408;28;20586;-58
2023/09/13 06:18:05;;;;;;;13.23;8.77;;;17.70;99.90;;;;;;5015390;28;20563;-58
2023/09/13 06:20:33;;;;;;;10.23;8.40;;;17.70;99.90;;;;;;5014849;28;20514;-58
2023/09/13 06:23:00;;;;;;;8.30;7.50;;;17.80;99.90;;;;;;5009472;28;20496;-57
2023/09/13 06:25:26;;;;;;;14.37;10.23;;;17.80;99.90;;;;;;5009311;28;20483;-60
2023/09/13 06:27:53;;;;;;;9.47;8.43;;;17.90;99.90;;;;;;5004438;28;20570;-57
2023/09/13 06:30:20;;;;;;;14.37;9.17;;;18.00;99.90;;;;;;5008100;28;20496;-58
2023/09/13 06:32:47;;;;;;;17.80;10.80;;;18.00;99.90;;;;;;5012737;28;20475;-58
2023/09/13 06:35:14;;;;;;;15.60;10.30;;;18.00;99.90;;;;;;5011081;28;20546;-58
2023/09/13 06:37:44;;;;;;;13.17;9.47;;;18.00;99.90;;;;;;5005341;28;20568;-58
2023/09/13 06:40:11;;;;;;;12.93;10.30;;;18.00;99.90;;;;;;5014069;28;20941;-58
2023/09/13 06:42:38;;;;;;;16.67;9.87;;;17.90;99.90;;;;;;5011405;28;20466;-58
2023/09/13 06:45:05;;;;;;;16.23;10.37;;;17.90;99.90;;;;;;5010397;28;20551;-57
2023/09/13 06:47:32;;;;;;;14.17;11.27;;;18.00;99.90;;;;;;5009127;28;20557;-56
2023/09/13 06:49:58;;;;;;;14.23;9.73;;;18.00;99.90;;;;;;5014279;28;20492;-56
2023/09/13 06:52:25;;;;;;;11.77;10.57;;;18.00;99.90;;;;;;5010281;28;20888;-57
2023/09/13 06:54:53;;;;;;;21.10;10.30;;;18.00;99.90;;;;;;5006660;28;20593;-60
2023/09/13 06:57:19;;;;;;;12.07;10.30;;;18.00;99.90;;;;;;5019108;28;20482;-57
2023/09/13 06:59:46;;;;;;;18.10;9.40;;;18.00;99.90;;;;;;5012625;28;20576;-56
2023/09/13 07:02:12;;;;;;;18.20;11.33;;;17.90;99.90;;;;;;5000118;28;20564;-56
2023/09/13 07:04:40;;;;;;;14.20;11.43;;;17.90;99.90;;;;;;5010208;28;20891;-57
2023/09/13 07:07:07;;;;;;;19.03;10.73;;;17.90;99.90;;;;;;5008119;28;20471;-57
2023/09/13 07:09:33;;;;;;;11.80;10.60;;;17.90;99.90;;;;;;5011871;28;20463;-57
2023/09/13 07:12:01;;;;;;;13.57;10.53;;;17.90;99.90;;;;;;5012890;28;20607;-58
2023/09/13 07:14:28;;;;;;;13.07;10.33;;;17.90;99.90;;;;;;5009613;28;20494;-56
2023/09/13 07:16:54;;;;;;;13.20;10.33;;;17.90;99.90;;;;;;5009723;28;20515;-57
2023/09/13 07:19:21;;;;;;;12.57;10.10;;;17.90;99.90;;;;;;5009514;28;20487;-57
2023/09/13 07:21:47;;;;;;;14.73;10.20;;;17.90;99.90;;;;;;5011059;28;20499;-57
2023/09/13 07:24:14;;;;;;;13.40;9.90;;;18.00;99.90;;;;;;5010682;28;20467;-57
2023/09/13 07:26:40;;;;;;;12.23;9.37;;;18.00;99.90;;;;;;5007886;28;20574;-57
2023/09/13 07:29:08;;;;;;;15.50;10.20;;;18.00;99.90;;;;;;5012300;28;20574;-56
2023/09/13 07:31:35;;;;;;;11.53;9.37;;;18.00;99.90;;;;;;5003769;28;20495;-57
2023/09/13 07:34:02;;;;;;;11.20;9.90;;;18.10;99.90;;;;;;5009835;28;20555;-57
2023/09/13 07:36:29;;;;;;;11.43;9.60;;;18.00;99.90;;;;;;5005180;28;20542;-57
2023/09/13 07:38:56;;;;;;;12.03;10.00;;;18.00;99.90;;;;;;5012922;28;20463;-58
2023/09/13 07:41:23;;;;;;;11.73;10.47;;;18.00;99.90;;;;;;5009458;28;20464;-58
2023/09/13 07:43:49;;;;;;;13.33;9.70;;;18.00;99.90;;;;;;5010599;28;20495;-57
2023/09/13 07:46:17;;;;;;;14.33;10.83;;;18.00;99.90;;;;;;5019464;28;20515;-58
2023/09/13 07:48:44;;;;;;;14.70;10.10;;;18.10;99.90;;;;;;5017312;28;21064;-57
2023/09/13 07:51:10;;;;;;;11.13;9.47;;;18.10;99.90;;;;;;5007930;28;20559;-57
2023/09/13 07:53:37;;;;;;;16.43;9.10;;;18.10;99.90;;;;;;5011174;28;20551;-57
2023/09/13 07:56:03;;;;;;;9.00;8.10;;;18.20;99.90;;;;;;5006042;28;20567;-57
2023/09/13 07:58:30;;;;;;;10.80;8.77;;;18.20;99.90;;;;;;5015079;28;20490;-57
2023/09/13 08:00:56;;;;;;;13.70;7.57;;;18.20;99.90;;;;;;5007565;28;20495;-57
2023/09/13 08:03:24;;;;;;;10.17;7.83;;;18.20;99.90;;;;;;5007250;28;20494;-56
2023/09/13 08:05:51;;;;;;;12.47;7.50;;;18.20;99.90;;;;;;5017518;28;20510;-58
2023/09/13 08:08:22;;;;;;;9.27;7.97;;;18.10;99.90;;;;;;5007131;28;20575;-56
2023/09/13 08:10:49;;;;;;;9.73;7.30;;;18.20;99.90;;;;;;5010314;28;20471;-57
2023/09/13 08:13:16;;;;;;;9.17;7.57;;;18.10;99.90;;;;;;5002913;28;20550;-58
2023/09/13 08:15:43;;;;;;;9.70;7.90;;;18.10;99.90;;;;;;5012407;28;20518;-57
2023/09/13 08:18:09;;;;;;;11.53;7.40;;;18.10;99.90;;;;;;5017204;28;21050;-58
2023/09/13 08:20:37;;;;;;;10.97;6.70;;;18.10;99.90;;;;;;5007192;28;20546;-55
2023/09/13 08:23:04;;;;;;;10.93;7.00;;;18.20;99.90;;;;;;5009749;28;20494;-57
2023/09/13 08:25:30;;;;;;;17.80;6.60;;;18.20;99.90;;;;;;5014271;28;20511;-58
2023/09/13 08:27:57;;;;;;;10.73;6.27;;;18.20;99.90;;;;;;5002353;28;20511;-56
2023/09/13 08:30:23;;;;;;;11.43;7.40;;;18.30;99.90;;;;;;5011297;28;20491;-57
2023/09/13 08:32:50;;;;;;;7.10;6.33;;;18.20;99.90;;;;;;5011466;28;20526;-56
2023/09/13 08:35:17;;;;;;;10.20;6.90;;;18.20;99.90;;;;;;5014525;28;21020;-57
2023/09/13 08:37:45;;;;;;;13.20;6.77;;;18.20;99.90;;;;;;5016770;28;21077;-57
2023/09/13 08:40:12;;;;;;;7.50;5.90;;;18.20;99.90;;;;;;5013291;28;20463;-57
2023/09/13 08:42:41;;;;;;;7.07;6.20;;;18.30;99.90;;;;;;5009234;28;20983;-57
2023/09/13 08:45:08;;;;;;;6.93;5.87;;;18.40;99.90;;;;;;5011280;28;20483;-57
2023/09/13 08:47:38;;;;;;;8.83;6.40;;;18.40;99.90;;;;;;5015079;28;20974;-57
2023/09/13 08:50:07;;;;;;;8.70;6.83;;;18.50;99.90;;;;;;5015888;28;20543;-57
2023/09/13 08:52:36;;;;;;;8.83;5.77;;;18.40;99.90;;;;;;5011913;28;20709;-58
2023/09/13 08:55:07;;;;;;;6.00;5.40;;;18.50;99.90;;;;;;4999812;28;20495;-58
2023/09/13 08:57:35;;;;;;;6.03;5.10;;;18.50;99.90;;;;;;5010176;28;20455;-58
2023/09/13 09:00:02;;;;;;;9.13;6.00;;;18.60;99.90;;;;;;5008667;28;20531;-57
2023/09/13 09:02:31;;;;;;;5.00;4.47;;;18.70;99.90;;;;;;5005165;28;20471;-59
2023/09/13 09:04:58;;;;;;;8.80;5.60;;;18.70;99.90;;;;;;5015663;28;20518;-58
2023/09/13 09:07:26;;;;;;;5.67;4.03;;;18.60;99.90;;;;;;5014829;28;20494;-59
2023/09/13 09:09:53;;;;;;;6.07;3.77;;;18.60;99.90;;;;;;5012320;28;20582;-57
2023/09/13 09:12:22;;;;;;;4.13;3.73;;;18.60;99.90;;;;;;5010221;28;20551;-59
2023/09/13 09:14:51;;;;;;;14.57;4.17;;;18.60;99.90;;;;;;5008816;28;20882;-57
2023/09/13 09:17:21;;;;;;;8.23;4.00;;;18.70;99.90;;;;;;5003049;28;20879;-58
2023/09/13 09:19:48;;;;;;;3.90;3.60;;;18.70;99.90;;;;;;4999345;28;20467;-58
2023/09/13 09:22:16;;;;;;;10.53;4.27;;;18.80;99.90;;;;;;5000173;28;20546;-58
2023/09/13 09:24:43;;;;;;;6.70;3.47;;;18.90;99.90;;;;;;4999029;28;21057;-59
2023/09/13 09:27:10;;;;;;;4.17;3.63;;;19.00;1.40;;;;;;5002214;28;20455;-58
2023/09/13 09:29:40;;;;;;;3.93;3.10;;;19.00;99.90;;;;;;5005047;28;20495;-57
2023/09/13 09:32:08;;;;;;;2.93;2.70;;;19.00;99.90;;;;;;5002105;28;20938;-58
2023/09/13 09:34:38;;;;;;;4.60;3.00;;;19.00;99.90;;;;;;4999542;28;20455;-58
2023/09/13 09:37:07;;;;;;;4.10;3.10;;;19.00;99.90;;;;;;5002720;28;20464;-57
2023/09/13 09:39:37;;;;;;;4.10;2.70;;;19.00;99.90;;;;;;5001855;28;20463;-58
2023/09/13 09:42:04;;;;;;;2.37;2.27;;;19.10;99.90;;;;;;4999778;28;20542;-58
2023/09/13 09:44:31;;;;;;;3.03;2.70;;;19.10;99.90;;;;;;5002844;28;20456;-57
2023/09/13 09:46:59;;;;;;;2.60;2.40;;;19.20;99.90;;;;;;5001090;28;20474;-57
2023/09/13 09:49:26;;;;;;;2.80;2.60;;;19.40;99.90;;;;;;4998082;28;20545;-58
2023/09/13 09:51:53;;;;;;;3.13;2.50;;;19.60;99.90;;;;;;5000927;28;20595;-57
2023/09/13 09:54:20;;;;;;;4.23;2.90;;;19.90;99.90;;;;;;5000632;28;20951;-58
2023/09/13 09:56:47;;;;;;;3.03;2.83;;;20.00;99.90;;;;;;5006744;28;20585;-58
2023/09/13 09:59:13;;;;;;;3.00;2.80;;;20.20;99.90;;;;;;5015079;28;20510;-58
2023/09/13 10:01:41;;;;;;;3.47;2.67;;;20.20;91.30;;;;;;5012533;28;20494;-59
2023/09/13 10:04:12;;;;;;;2.40;2.20;;;20.20;20.30;;;;;;5011179;28;20462;-60
2023/09/13 10:06:56;;;;;;;3.00;2.70;;;20.10;99.90;;;;;;5004726;28;20503;-59
2023/09/13 10:09:22;;;;;;;2.50;2.30;;;20.10;99.90;;;;;;5003381;28;20488;-58
2023/09/13 10:11:56;;;;;;;2.47;2.37;;;19.90;72.20;;;;;;5004531;28;20549;-57
2023/09/13 10:14:26;;;;;;;3.03;2.20;;;20.00;99.90;;;;;;4998455;28;20676;-59
2023/09/13 10:16:54;;;;;;;7.40;2.17;;;19.90;92.70;;;;;;5004305;28;20495;-58
2023/09/13 10:19:25;;;;;;;3.00;2.00;;;20.00;99.90;;;;;;5000039;28;20989;-57
2023/09/13 10:21:54;;;;;;;5.50;2.90;;;20.00;99.90;;;;;;4995843;28;21055;-57
2023/09/13 10:24:23;;;;;;;2.27;2.17;;;20.10;99.90;;;;;;5010582;28;20986;-57
2023/09/13 10:26:52;;;;;;;4.80;2.40;;;20.10;99.90;;;;;;5009286;28;20575;-58
2023/09/13 10:29:25;;;;;;;4.00;2.50;;;20.10;99.90;;;;;;5004838;28;21001;-57
2023/09/13 10:31:56;;;;;;;9.20;2.20;;;20.20;99.90;;;;;;5006634;28;20459;-58
2023/09/13 10:34:26;;;;;;;2.27;2.07;;;20.20;99.90;;;;;;5004727;28;20491;-58
2023/09/13 10:37:01;;;;;;;3.90;2.47;;;20.50;99.90;;;;;;5006450;28;21013;-57
2023/09/13 10:39:31;;;;;;;2.43;2.13;;;21.10;30.40;;;;;;5010759;28;21041;-58
2023/09/13 10:42:04;;;;;;;2.03;1.90;;;21.30;30.80;;;;;;5005959;28;20522;-58
2023/09/13 10:44:30;;;;;;;1.63;1.53;;;21.20;68.80;;;;;;5011169;28;20593;-58
2023/09/13 10:46:57;;;;;;;1.90;1.80;;;21.00;62.00;;;;;;5009501;28;20497;-58
2023/09/13 10:49:26;;;;;;;4.00;1.90;;;20.80;59.80;;;;;;5007606;28;21024;-58
2023/09/13 10:51:55;;;;;;;1.70;1.60;;;20.70;50.30;;;;;;5003679;28;20504;-59
2023/09/13 10:54:22;;;;;;;2.60;1.90;;;20.60;53.20;;;;;;5013356;28;20870;-58
2023/09/13 10:56:49;;;;;;;3.13;1.60;;;20.60;50.80;;;;;;5012442;28;20491;-57
2023/09/13 10:59:18;;;;;;;1.83;1.73;;;20.50;49.80;;;;;;5002808;28;20455;-57
2023/09/13 11:01:46;;;;;;;2.00;1.90;;;20.60;48.40;;;;;;5001030;28;20894;-58
2023/09/13 11:04:13;;;;;;;2.00;1.90;;;20.60;41.80;;;;;;5005106;28;20490;-59
2023/09/13 11:06:43;;;;;;;2.10;1.90;;;20.90;65.60;;;;;;5012860;28;20510;-60
2023/09/13 11:09:14;;;;;;;2.50;1.53;;;21.00;57.30;;;;;;5002572;28;20488;-50
2023/09/13 11:11:47;;;;;;;1.70;1.60;;;21.20;79.50;;;;;;5007850;28;20460;-51
2023/09/13 11:14:17;;;;;;;1.87;1.77;;;21.30;77.50;;;;;;4999750;28;20482;-51
2023/09/13 11:16:45;;;;;;;3.30;1.30;;;21.50;77.70;;;;;;4999819;28;20523;-51
2023/09/13 11:19:13;;;;;;;3.90;1.40;;;21.80;88.70;;;;;;5006800;28;20542;-51
2023/09/13 11:21:49;;;;;;;3.53;1.33;;;22.10;99.90;;;;;;5015010;28;20502;-51
2023/09/13 11:24:34;;;;;;;1.40;1.30;;;22.50;99.90;;;;;;5007837;28;20466;-51
2023/09/13 11:27:11;;;;;;;0.80;0.77;;;22.40;99.90;;;;;;4992455;28;20464;-50
2023/09/13 11:29:41;;;;;;;12.27;4.30;;;22.50;99.90;;;;;;5014100;28;20474;-51
2023/09/13 11:32:09;;;;;;;11.63;2.70;;;22.50;99.90;;;;;;5010107;28;21471;-51
2023/09/13 11:34:37;;;;;;;3.33;1.10;;;22.50;99.90;;;;;;5008228;28;20968;-51
2023/09/13 11:37:07;;;;;;;1.10;0.93;;;22.50;99.90;;;;;;5002599;28;20466;-51
2023/09/13 11:39:34;;;;;;;8.13;3.00;;;22.70;99.90;;;;;;5008712;28;20458;-51
2023/09/13 11:42:01;;;;;;;4.50;1.77;;;22.80;99.90;;;;;;5006453;28;20487;-50
2023/09/13 11:44:28;;;;;;;1.07;0.60;;;22.70;99.90;;;;;;5006517;28;20574;-51
2023/09/13 11:46:55;;;;;;;5.90;1.60;;;22.60;99.90;;;;;;4996893;28;20570;-51
2023/09/13 11:49:23;;;;;;;1.67;1.27;;;22.40;99.90;;;;;;5013070;28;20505;-51
2023/09/13 11:51:54;;;;;;;1.47;1.17;;;22.40;99.90;;;;;;5008006;28;20471;-50
2023/09/13 11:54:23;;;;;;;3.83;0.90;;;22.30;99.90;;;;;;5011500;28;20460;-52
2023/09/13 11:56:51;;;;;;;0.80;0.80;;;22.40;99.90;;;;;;5020310;23;20503;-51
2023/09/13 11:59:24;;;;;;;1.37;0.83;;;22.60;99.90;;;;;;5002594;28;20513;-52
2023/09/13 12:01:51;;;;;;;1.80;0.90;;;22.60;99.90;;;;;;5009678;28;20490;-51
2023/09/13 12:04:20;;;;;;;1.97;1.03;;;22.80;99.90;;;;;;5016787;28;20452;-52
2023/09/13 12:06:48;;;;;;;7.00;2.87;;;23.10;99.90;;;;;;5008229;28;20567;-52
2023/09/13 12:09:16;;;;;;;0.73;0.73;;;23.40;99.90;;;;;;5012144;28;20513;-52
2023/09/13 12:11:45;;;;;;;1.23;1.07;;;23.30;99.90;;;;;;5012821;28;21138;-52
2023/09/13 12:14:11;;;;;;;2.93;1.30;;;23.10;99.90;;;;;;5013053;28;20654;-54
2023/09/13 12:16:38;;;;;;;1.73;0.83;;;23.40;99.90;;;;;;5013196;28;20483;-52
2023/09/13 12:19:06;;;;;;;3.60;1.03;;;23.10;99.90;;;;;;5014038;28;20542;-52
2023/09/13 12:21:34;;;;;;;1.13;1.03;;;22.90;99.90;;;;;;5013848;28;20459;-52
2023/09/13 12:24:00;;;;;;;0.93;0.73;;;22.70;99.90;;;;;;5018319;28;20494;-52
2023/09/13 12:26:28;;;;;;;0.80;0.60;;;22.60;99.90;;;;;;5003006;28;20478;-52
2023/09/13 12:28:56;;;;;;;1.93;0.90;;;22.30;99.90;;;;;;5007126;28;20949;-52
2023/09/13 12:31:24;;;;;;;4.30;1.17;;;21.80;99.90;;;;;;5009913;28;20467;-52
2023/09/13 12:33:52;;;;;;;0.90;0.50;;;21.70;99.90;;;;;;5014865;28;20802;-52
2023/09/13 12:36:19;;;;;;;0.70;0.70;;;21.60;99.90;;;;;;5018509;28;20522;-51
2023/09/13 12:38:48;;;;;;;1.30;0.80;;;21.50;99.90;;;;;;5020192;28;20868;-52
2023/09/13 12:41:16;;;;;;;0.77;0.77;;;21.40;99.90;;;;;;5016745;28;20447;-52
2023/09/13 12:43:44;;;;;;;1.77;0.77;;;21.70;99.90;;;;;;5015355;28;20467;-53
2023/09/13 12:46:14;;;;;;;8.90;0.90;;;21.70;99.90;;;;;;5015118;28;20519;-52